sensor_id;sensor_type;location;lat;lon;timestamp;P1;durP1;ratioP1;P2;durP2;ratioP2
68864;SDS011;55898;52.196;4.420;2022-07-29T00:00:28;0.97;;;0.97;;
68864;SDS011;55898;52.196;4.420;2022-07-29T00:02:54;1.00;;;1.00;;
68864;SDS011;55898;52.196;4.420;2022-07-29T00:05:19;0.90;;;0.90;;
68864;SDS011;55898;52.196;4.420;2022-07-29T00:07:45;0.90;;;0.90;;
68864;SDS011;55898;52.196;4.420;2022-07-29T00:10:10;0.98;;;0.98;;
68864;SDS011;55898;52.196;4.420;2022-07-29T00:12:36;0.96;;;0.96;;
68864;SDS011;55898;52.196;4.420;2022-07-29T00:15:02;1.03;;;1.03;;
68864;SDS011;55898;52.196;4.420;2022-07-29T00:17:28;1.03;;;1.03;;
68864;SDS011;55898;52.196;4.420;2022-07-29T00:19:53;0.95;;;0.95;;
68864;SDS011;55898;52.196;4.420;2022-07-29T00:22:19;0.95;;;0.95;;
68864;SDS011;55898;52.196;4.420;2022-07-29T00:24:46;1.19;;;1.19;;
68864;SDS011;55898;52.196;4.420;2022-07-29T00:27:13;1.18;;;1.18;;
68864;SDS011;55898;52.196;4.420;2022-07-29T00:29:39;0.89;;;0.89;;
68864;SDS011;55898;52.196;4.420;2022-07-29T00:32:05;0.93;;;0.93;;
68864;SDS011;55898;52.196;4.420;2022-07-29T00:34:30;0.97;;;0.97;;
68864;SDS011;55898;52.196;4.420;2022-07-29T00:37:14;0.93;;;0.93;;
68864;SDS011;55898;52.196;4.420;2022-07-29T00:39:40;0.96;;;0.96;;
68864;SDS011;55898;52.196;4.420;2022-07-29T00:42:06;1.03;;;1.03;;
68864;SDS011;55898;52.196;4.420;2022-07-29T00:44:35;0.89;;;0.89;;
68864;SDS011;55898;52.196;4.420;2022-07-29T00:47:04;0.98;;;0.98;;
68864;SDS011;55898;52.196;4.420;2022-07-29T00:49:29;0.89;;;0.89;;
68864;SDS011;55898;52.196;4.420;2022-07-29T00:51:55;0.86;;;0.86;;
68864;SDS011;55898;52.196;4.420;2022-07-29T00:54:20;1.00;;;1.00;;
68864;SDS011;55898;52.196;4.420;2022-07-29T00:56:46;1.05;;;1.05;;
68864;SDS011;55898;52.196;4.420;2022-07-29T00:59:12;1.13;;;1.13;;
68864;SDS011;55898;52.196;4.420;2022-07-29T01:01:37;1.09;;;1.09;;
68864;SDS011;55898;52.196;4.420;2022-07-29T01:04:02;1.07;;;1.07;;
68864;SDS011;55898;52.196;4.420;2022-07-29T01:06:28;0.99;;;0.99;;
68864;SDS011;55898;52.196;4.420;2022-07-29T01:08:54;1.12;;;1.12;;
68864;SDS011;55898;52.196;4.420;2022-07-29T01:11:21;1.06;;;1.06;;
68864;SDS011;55898;52.196;4.420;2022-07-29T01:13:47;1.27;;;1.27;;
68864;SDS011;55898;52.196;4.420;2022-07-29T01:16:14;1.12;;;1.12;;
68864;SDS011;55898;52.196;4.420;2022-07-29T01:18:55;1.14;;;1.14;;
68864;SDS011;55898;52.196;4.420;2022-07-29T01:24:54;1.06;;;1.06;;
68864;SDS011;55898;52.196;4.420;2022-07-29T01:29:56;1.12;;;1.12;;
68864;SDS011;55898;52.196;4.420;2022-07-29T01:32:28;1.05;;;1.05;;
68864;SDS011;55898;52.196;4.420;2022-07-29T01:40:20;1.01;;;1.01;;
68864;SDS011;55898;52.196;4.420;2022-07-29T01:43:05;1.20;;;1.20;;
68864;SDS011;55898;52.196;4.420;2022-07-29T01:45:53;0.97;;;0.97;;
68864;SDS011;55898;52.196;4.420;2022-07-29T01:48:33;1.17;;;1.17;;
68864;SDS011;55898;52.196;4.420;2022-07-29T01:51:05;1.09;;;1.09;;
68864;SDS011;55898;52.196;4.420;2022-07-29T01:56:24;0.96;;;0.96;;
68864;SDS011;55898;52.196;4.420;2022-07-29T01:58:56;1.04;;;1.04;;
68864;SDS011;55898;52.196;4.420;2022-07-29T02:01:23;1.12;;;1.12;;
68864;SDS011;55898;52.196;4.420;2022-07-29T02:03:51;1.01;;;1.01;;
68864;SDS011;55898;52.196;4.420;2022-07-29T02:06:21;1.18;;;1.18;;
68864;SDS011;55898;52.196;4.420;2022-07-29T02:08:48;1.21;;;1.21;;
68864;SDS011;55898;52.196;4.420;2022-07-29T02:11:16;1.15;;;1.15;;
68864;SDS011;55898;52.196;4.420;2022-07-29T02:13:42;1.35;;;1.35;;
68864;SDS011;55898;52.196;4.420;2022-07-29T02:16:10;1.16;;;1.16;;
68864;SDS011;55898;52.196;4.420;2022-07-29T02:18:37;1.12;;;1.12;;
68864;SDS011;55898;52.196;4.420;2022-07-29T02:21:08;1.25;;;1.25;;
68864;SDS011;55898;52.196;4.420;2022-07-29T02:23:35;1.33;;;1.33;;
68864;SDS011;55898;52.196;4.420;2022-07-29T02:26:04;1.02;;;1.02;;
68864;SDS011;55898;52.196;4.420;2022-07-29T02:28:33;1.14;;;1.14;;
68864;SDS011;55898;52.196;4.420;2022-07-29T02:30:59;1.33;;;1.33;;
68864;SDS011;55898;52.196;4.420;2022-07-29T02:33:28;3.01;;;3.01;;
68864;SDS011;55898;52.196;4.420;2022-07-29T02:35:56;1.46;;;1.46;;
68864;SDS011;55898;52.196;4.420;2022-07-29T02:38:24;1.37;;;1.37;;
68864;SDS011;55898;52.196;4.420;2022-07-29T02:41:13;1.25;;;1.25;;
68864;SDS011;55898;52.196;4.420;2022-07-29T02:43:43;1.17;;;1.17;;
68864;SDS011;55898;52.196;4.420;2022-07-29T02:46:13;1.06;;;1.06;;
68864;SDS011;55898;52.196;4.420;2022-07-29T02:48:44;1.25;;;1.25;;
68864;SDS011;55898;52.196;4.420;2022-07-29T02:51:23;1.19;;;1.19;;
68864;SDS011;55898;52.196;4.420;2022-07-29T02:53:58;1.28;;;1.28;;
68864;SDS011;55898;52.196;4.420;2022-07-29T02:56:31;1.27;;;1.27;;
68864;SDS011;55898;52.196;4.420;2022-07-29T02:59:01;1.39;;;1.39;;
68864;SDS011;55898;52.196;4.420;2022-07-29T03:01:31;1.23;;;1.23;;
68864;SDS011;55898;52.196;4.420;2022-07-29T03:04:00;1.29;;;1.29;;
68864;SDS011;55898;52.196;4.420;2022-07-29T03:06:29;1.18;;;1.18;;
68864;SDS011;55898;52.196;4.420;2022-07-29T03:08:58;1.26;;;1.26;;
68864;SDS011;55898;52.196;4.420;2022-07-29T03:11:25;1.37;;;1.37;;
68864;SDS011;55898;52.196;4.420;2022-07-29T03:13:51;1.30;;;1.30;;
68864;SDS011;55898;52.196;4.420;2022-07-29T03:16:19;1.19;;;1.19;;
68864;SDS011;55898;52.196;4.420;2022-07-29T03:18:46;1.13;;;1.13;;
68864;SDS011;55898;52.196;4.420;2022-07-29T03:21:12;1.39;;;1.39;;
68864;SDS011;55898;52.196;4.420;2022-07-29T03:23:39;1.23;;;1.23;;
68864;SDS011;55898;52.196;4.420;2022-07-29T03:26:10;1.36;;;1.36;;
68864;SDS011;55898;52.196;4.420;2022-07-29T03:28:36;1.55;;;1.55;;
68864;SDS011;55898;52.196;4.420;2022-07-29T03:31:01;1.43;;;1.43;;
68864;SDS011;55898;52.196;4.420;2022-07-29T03:33:27;1.51;;;1.51;;
68864;SDS011;55898;52.196;4.420;2022-07-29T03:35:54;1.47;;;1.47;;
68864;SDS011;55898;52.196;4.420;2022-07-29T03:38:20;1.46;;;1.46;;
68864;SDS011;55898;52.196;4.420;2022-07-29T03:40:54;1.61;;;1.61;;
68864;SDS011;55898;52.196;4.420;2022-07-29T03:43:25;1.58;;;1.58;;
68864;SDS011;55898;52.196;4.420;2022-07-29T03:45:57;1.81;;;1.81;;
68864;SDS011;55898;52.196;4.420;2022-07-29T03:48:25;1.57;;;1.57;;
68864;SDS011;55898;52.196;4.420;2022-07-29T03:50:54;1.54;;;1.54;;
68864;SDS011;55898;52.196;4.420;2022-07-29T03:53:20;1.57;;;1.57;;
68864;SDS011;55898;52.196;4.420;2022-07-29T03:55:48;1.60;;;1.60;;
68864;SDS011;55898;52.196;4.420;2022-07-29T03:58:18;1.67;;;1.67;;
68864;SDS011;55898;52.196;4.420;2022-07-29T04:00:45;1.60;;;1.60;;
68864;SDS011;55898;52.196;4.420;2022-07-29T04:03:12;1.57;;;1.57;;
68864;SDS011;55898;52.196;4.420;2022-07-29T04:05:38;1.71;;;1.71;;
68864;SDS011;55898;52.196;4.420;2022-07-29T04:08:04;1.69;;;1.69;;
68864;SDS011;55898;52.196;4.420;2022-07-29T04:10:30;1.55;;;1.55;;
68864;SDS011;55898;52.196;4.420;2022-07-29T04:12:56;1.61;;;1.61;;
68864;SDS011;55898;52.196;4.420;2022-07-29T04:15:22;1.53;;;1.53;;
68864;SDS011;55898;52.196;4.420;2022-07-29T04:17:48;1.76;;;1.76;;
68864;SDS011;55898;52.196;4.420;2022-07-29T04:20:13;1.68;;;1.68;;
68864;SDS011;55898;52.196;4.420;2022-07-29T04:22:39;1.87;;;1.87;;
68864;SDS011;55898;52.196;4.420;2022-07-29T04:25:05;2.09;;;2.09;;
68864;SDS011;55898;52.196;4.420;2022-07-29T04:27:31;2.14;;;2.14;;
68864;SDS011;55898;52.196;4.420;2022-07-29T04:29:56;1.70;;;1.70;;
68864;SDS011;55898;52.196;4.420;2022-07-29T04:32:22;1.83;;;1.83;;
68864;SDS011;55898;52.196;4.420;2022-07-29T04:34:48;1.62;;;1.62;;
68864;SDS011;55898;52.196;4.420;2022-07-29T04:37:14;1.77;;;1.77;;
68864;SDS011;55898;52.196;4.420;2022-07-29T04:39:39;1.76;;;1.76;;
68864;SDS011;55898;52.196;4.420;2022-07-29T04:42:05;1.75;;;1.75;;
68864;SDS011;55898;52.196;4.420;2022-07-29T04:44:30;1.67;;;1.67;;
68864;SDS011;55898;52.196;4.420;2022-07-29T04:46:56;1.45;;;1.45;;
68864;SDS011;55898;52.196;4.420;2022-07-29T04:49:22;1.72;;;1.72;;
68864;SDS011;55898;52.196;4.420;2022-07-29T04:51:48;1.69;;;1.69;;
68864;SDS011;55898;52.196;4.420;2022-07-29T04:54:14;1.44;;;1.44;;
68864;SDS011;55898;52.196;4.420;2022-07-29T04:56:39;1.54;;;1.54;;
68864;SDS011;55898;52.196;4.420;2022-07-29T04:59:04;1.50;;;1.50;;
68864;SDS011;55898;52.196;4.420;2022-07-29T05:01:30;1.50;;;1.50;;
68864;SDS011;55898;52.196;4.420;2022-07-29T05:03:55;1.55;;;1.55;;
68864;SDS011;55898;52.196;4.420;2022-07-29T05:06:21;1.58;;;1.58;;
68864;SDS011;55898;52.196;4.420;2022-07-29T05:08:46;1.56;;;1.56;;
68864;SDS011;55898;52.196;4.420;2022-07-29T05:11:12;1.40;;;1.40;;
68864;SDS011;55898;52.196;4.420;2022-07-29T05:13:37;1.53;;;1.53;;
68864;SDS011;55898;52.196;4.420;2022-07-29T05:16:03;1.56;;;1.56;;
68864;SDS011;55898;52.196;4.420;2022-07-29T05:18:29;1.67;;;1.67;;
68864;SDS011;55898;52.196;4.420;2022-07-29T05:20:54;1.48;;;1.48;;
68864;SDS011;55898;52.196;4.420;2022-07-29T05:23:20;1.67;;;1.67;;
68864;SDS011;55898;52.196;4.420;2022-07-29T05:25:45;1.61;;;1.61;;
68864;SDS011;55898;52.196;4.420;2022-07-29T05:28:11;1.69;;;1.69;;
68864;SDS011;55898;52.196;4.420;2022-07-29T05:30:37;1.53;;;1.53;;
68864;SDS011;55898;52.196;4.420;2022-07-29T05:33:02;1.59;;;1.59;;
68864;SDS011;55898;52.196;4.420;2022-07-29T05:35:28;1.71;;;1.71;;
68864;SDS011;55898;52.196;4.420;2022-07-29T05:37:53;1.47;;;1.47;;
68864;SDS011;55898;52.196;4.420;2022-07-29T05:40:19;1.60;;;1.60;;
68864;SDS011;55898;52.196;4.420;2022-07-29T05:42:45;1.73;;;1.73;;
68864;SDS011;55898;52.196;4.420;2022-07-29T05:45:10;1.59;;;1.59;;
68864;SDS011;55898;52.196;4.420;2022-07-29T05:47:36;1.62;;;1.62;;
68864;SDS011;55898;52.196;4.420;2022-07-29T05:50:01;1.74;;;1.74;;
68864;SDS011;55898;52.196;4.420;2022-07-29T05:52:27;1.63;;;1.63;;
68864;SDS011;55898;52.196;4.420;2022-07-29T05:54:53;1.55;;;1.55;;
68864;SDS011;55898;52.196;4.420;2022-07-29T05:57:19;1.50;;;1.50;;
68864;SDS011;55898;52.196;4.420;2022-07-29T05:59:47;1.69;;;1.69;;
68864;SDS011;55898;52.196;4.420;2022-07-29T06:02:13;1.49;;;1.49;;
68864;SDS011;55898;52.196;4.420;2022-07-29T06:04:40;1.73;;;1.73;;
68864;SDS011;55898;52.196;4.420;2022-07-29T06:07:05;1.80;;;1.80;;
68864;SDS011;55898;52.196;4.420;2022-07-29T06:09:31;1.71;;;1.71;;
68864;SDS011;55898;52.196;4.420;2022-07-29T06:11:57;1.73;;;1.73;;
68864;SDS011;55898;52.196;4.420;2022-07-29T06:14:23;1.62;;;1.62;;
68864;SDS011;55898;52.196;4.420;2022-07-29T06:16:49;1.57;;;1.57;;
68864;SDS011;55898;52.196;4.420;2022-07-29T06:19:14;1.65;;;1.65;;
68864;SDS011;55898;52.196;4.420;2022-07-29T06:21:41;1.69;;;1.69;;
68864;SDS011;55898;52.196;4.420;2022-07-29T06:24:10;1.76;;;1.76;;
68864;SDS011;55898;52.196;4.420;2022-07-29T06:26:40;2.05;;;2.05;;
68864;SDS011;55898;52.196;4.420;2022-07-29T06:29:06;1.69;;;1.69;;
68864;SDS011;55898;52.196;4.420;2022-07-29T06:31:33;1.90;;;1.90;;
68864;SDS011;55898;52.196;4.420;2022-07-29T06:33:59;1.73;;;1.73;;
68864;SDS011;55898;52.196;4.420;2022-07-29T06:36:24;1.76;;;1.76;;
68864;SDS011;55898;52.196;4.420;2022-07-29T06:38:50;2.00;;;2.00;;
68864;SDS011;55898;52.196;4.420;2022-07-29T06:41:15;1.85;;;1.85;;
68864;SDS011;55898;52.196;4.420;2022-07-29T06:43:42;1.71;;;1.71;;
68864;SDS011;55898;52.196;4.420;2022-07-29T06:46:10;1.65;;;1.65;;
68864;SDS011;55898;52.196;4.420;2022-07-29T06:48:38;1.75;;;1.75;;
68864;SDS011;55898;52.196;4.420;2022-07-29T06:51:05;1.69;;;1.69;;
68864;SDS011;55898;52.196;4.420;2022-07-29T06:53:31;1.85;;;1.85;;
68864;SDS011;55898;52.196;4.420;2022-07-29T06:55:58;1.84;;;1.84;;
68864;SDS011;55898;52.196;4.420;2022-07-29T06:58:25;1.75;;;1.75;;
68864;SDS011;55898;52.196;4.420;2022-07-29T07:00:52;1.92;;;1.92;;
68864;SDS011;55898;52.196;4.420;2022-07-29T07:03:18;1.80;;;1.80;;
68864;SDS011;55898;52.196;4.420;2022-07-29T07:05:44;1.76;;;1.76;;
68864;SDS011;55898;52.196;4.420;2022-07-29T07:08:11;1.90;;;1.90;;
68864;SDS011;55898;52.196;4.420;2022-07-29T07:10:38;1.97;;;1.97;;
68864;SDS011;55898;52.196;4.420;2022-07-29T07:13:05;2.34;;;2.34;;
68864;SDS011;55898;52.196;4.420;2022-07-29T07:15:31;2.20;;;2.20;;
68864;SDS011;55898;52.196;4.420;2022-07-29T07:17:57;2.10;;;2.10;;
68864;SDS011;55898;52.196;4.420;2022-07-29T07:20:23;1.94;;;1.94;;
68864;SDS011;55898;52.196;4.420;2022-07-29T07:22:49;1.94;;;1.94;;
68864;SDS011;55898;52.196;4.420;2022-07-29T07:25:15;1.97;;;1.97;;
68864;SDS011;55898;52.196;4.420;2022-07-29T07:27:42;2.34;;;2.34;;
68864;SDS011;55898;52.196;4.420;2022-07-29T07:30:09;2.20;;;2.20;;
68864;SDS011;55898;52.196;4.420;2022-07-29T07:32:35;2.07;;;2.07;;
68864;SDS011;55898;52.196;4.420;2022-07-29T07:35:01;2.21;;;2.21;;
68864;SDS011;55898;52.196;4.420;2022-07-29T07:37:28;2.30;;;2.30;;
68864;SDS011;55898;52.196;4.420;2022-07-29T07:39:54;2.23;;;2.23;;
68864;SDS011;55898;52.196;4.420;2022-07-29T07:42:19;2.06;;;2.06;;
68864;SDS011;55898;52.196;4.420;2022-07-29T07:44:45;2.00;;;2.00;;
68864;SDS011;55898;52.196;4.420;2022-07-29T07:47:11;1.81;;;1.81;;
68864;SDS011;55898;52.196;4.420;2022-07-29T07:49:37;1.89;;;1.89;;
68864;SDS011;55898;52.196;4.420;2022-07-29T07:52:03;1.95;;;1.95;;
68864;SDS011;55898;52.196;4.420;2022-07-29T07:54:29;1.83;;;1.83;;
68864;SDS011;55898;52.196;4.420;2022-07-29T07:56:55;1.98;;;1.98;;
68864;SDS011;55898;52.196;4.420;2022-07-29T07:59:21;1.88;;;1.88;;
68864;SDS011;55898;52.196;4.420;2022-07-29T08:01:47;2.07;;;2.07;;
68864;SDS011;55898;52.196;4.420;2022-07-29T08:04:12;1.85;;;1.85;;
68864;SDS011;55898;52.196;4.420;2022-07-29T08:06:38;2.04;;;2.04;;
68864;SDS011;55898;52.196;4.420;2022-07-29T08:09:04;2.29;;;2.29;;
68864;SDS011;55898;52.196;4.420;2022-07-29T08:11:30;2.17;;;2.17;;
68864;SDS011;55898;52.196;4.420;2022-07-29T08:13:56;2.07;;;2.07;;
68864;SDS011;55898;52.196;4.420;2022-07-29T08:16:22;1.94;;;1.94;;
68864;SDS011;55898;52.196;4.420;2022-07-29T08:18:47;1.89;;;1.89;;
68864;SDS011;55898;52.196;4.420;2022-07-29T08:21:14;2.16;;;2.16;;
68864;SDS011;55898;52.196;4.420;2022-07-29T08:23:40;2.00;;;2.00;;
68864;SDS011;55898;52.196;4.420;2022-07-29T08:26:11;2.30;;;2.30;;
68864;SDS011;55898;52.196;4.420;2022-07-29T08:28:42;2.02;;;2.02;;
68864;SDS011;55898;52.196;4.420;2022-07-29T08:31:10;2.01;;;2.01;;
68864;SDS011;55898;52.196;4.420;2022-07-29T08:33:36;2.12;;;2.12;;
68864;SDS011;55898;52.196;4.420;2022-07-29T08:36:02;1.79;;;1.79;;
68864;SDS011;55898;52.196;4.420;2022-07-29T08:38:28;2.06;;;2.06;;
68864;SDS011;55898;52.196;4.420;2022-07-29T08:40:54;2.42;;;2.42;;
68864;SDS011;55898;52.196;4.420;2022-07-29T08:43:19;2.12;;;2.12;;
68864;SDS011;55898;52.196;4.420;2022-07-29T08:45:46;2.14;;;2.14;;
68864;SDS011;55898;52.196;4.420;2022-07-29T08:48:15;1.82;;;1.82;;
68864;SDS011;55898;52.196;4.420;2022-07-29T08:50:43;1.76;;;1.76;;
68864;SDS011;55898;52.196;4.420;2022-07-29T08:53:13;2.02;;;2.02;;
68864;SDS011;55898;52.196;4.420;2022-07-29T08:55:48;2.48;;;2.48;;
68864;SDS011;55898;52.196;4.420;2022-07-29T08:58:15;2.44;;;2.44;;
68864;SDS011;55898;52.196;4.420;2022-07-29T09:00:42;2.37;;;2.37;;
68864;SDS011;55898;52.196;4.420;2022-07-29T09:03:12;2.40;;;2.40;;
68864;SDS011;55898;52.196;4.420;2022-07-29T09:05:44;2.39;;;2.39;;
68864;SDS011;55898;52.196;4.420;2022-07-29T09:08:11;2.36;;;2.36;;
68864;SDS011;55898;52.196;4.420;2022-07-29T09:10:38;2.43;;;2.43;;
68864;SDS011;55898;52.196;4.420;2022-07-29T09:13:03;2.22;;;2.22;;
68864;SDS011;55898;52.196;4.420;2022-07-29T09:15:30;2.39;;;2.39;;
68864;SDS011;55898;52.196;4.420;2022-07-29T09:17:55;2.25;;;2.25;;
68864;SDS011;55898;52.196;4.420;2022-07-29T09:20:23;2.10;;;2.10;;
68864;SDS011;55898;52.196;4.420;2022-07-29T09:22:50;2.18;;;2.18;;
68864;SDS011;55898;52.196;4.420;2022-07-29T09:25:33;1.90;;;1.90;;
68864;SDS011;55898;52.196;4.420;2022-07-29T09:28:08;1.70;;;1.70;;
68864;SDS011;55898;52.196;4.420;2022-07-29T09:30:35;1.60;;;1.60;;
68864;SDS011;55898;52.196;4.420;2022-07-29T09:33:16;1.61;;;1.61;;
68864;SDS011;55898;52.196;4.420;2022-07-29T09:35:41;1.78;;;1.78;;
68864;SDS011;55898;52.196;4.420;2022-07-29T09:38:11;1.82;;;1.82;;
68864;SDS011;55898;52.196;4.420;2022-07-29T09:40:37;1.76;;;1.76;;
68864;SDS011;55898;52.196;4.420;2022-07-29T09:43:13;1.59;;;1.59;;
68864;SDS011;55898;52.196;4.420;2022-07-29T09:45:38;1.70;;;1.70;;
68864;SDS011;55898;52.196;4.420;2022-07-29T09:48:14;1.82;;;1.82;;
68864;SDS011;55898;52.196;4.420;2022-07-29T09:50:42;1.64;;;1.64;;
68864;SDS011;55898;52.196;4.420;2022-07-29T09:53:09;1.77;;;1.77;;
68864;SDS011;55898;52.196;4.420;2022-07-29T09:58:15;1.68;;;1.68;;
68864;SDS011;55898;52.196;4.420;2022-07-29T10:00:45;1.74;;;1.74;;
68864;SDS011;55898;52.196;4.420;2022-07-29T10:03:12;1.61;;;1.61;;
68864;SDS011;55898;52.196;4.420;2022-07-29T10:05:39;1.70;;;1.70;;
68864;SDS011;55898;52.196;4.420;2022-07-29T10:08:07;1.86;;;1.86;;
68864;SDS011;55898;52.196;4.420;2022-07-29T10:10:37;1.97;;;1.97;;
68864;SDS011;55898;52.196;4.420;2022-07-29T10:13:06;2.00;;;2.00;;
68864;SDS011;55898;52.196;4.420;2022-07-29T10:15:35;1.71;;;1.71;;
68864;SDS011;55898;52.196;4.420;2022-07-29T10:18:04;1.81;;;1.81;;
68864;SDS011;55898;52.196;4.420;2022-07-29T10:20:30;1.82;;;1.82;;
68864;SDS011;55898;52.196;4.420;2022-07-29T10:22:57;1.64;;;1.64;;
68864;SDS011;55898;52.196;4.420;2022-07-29T10:25:23;1.60;;;1.60;;
68864;SDS011;55898;52.196;4.420;2022-07-29T10:27:49;1.97;;;1.97;;
68864;SDS011;55898;52.196;4.420;2022-07-29T10:30:16;1.73;;;1.73;;
68864;SDS011;55898;52.196;4.420;2022-07-29T10:40:51;1.91;;;1.91;;
68864;SDS011;55898;52.196;4.420;2022-07-29T10:43:59;1.73;;;1.73;;
68864;SDS011;55898;52.196;4.420;2022-07-29T10:46:34;1.97;;;1.97;;
68864;SDS011;55898;52.196;4.420;2022-07-29T10:51:56;2.00;;;2.00;;
68864;SDS011;55898;52.196;4.420;2022-07-29T10:57:13;2.04;;;2.04;;
68864;SDS011;55898;52.196;4.420;2022-07-29T10:59:39;2.09;;;2.09;;
68864;SDS011;55898;52.196;4.420;2022-07-29T11:05:16;2.04;;;2.04;;
68864;SDS011;55898;52.196;4.420;2022-07-29T11:10:38;2.15;;;2.15;;
68864;SDS011;55898;52.196;4.420;2022-07-29T11:13:04;2.09;;;2.09;;
68864;SDS011;55898;52.196;4.420;2022-07-29T11:15:29;2.15;;;2.15;;
68864;SDS011;55898;52.196;4.420;2022-07-29T11:18:22;2.10;;;2.10;;
68864;SDS011;55898;52.196;4.420;2022-07-29T11:20:49;2.07;;;2.07;;
68864;SDS011;55898;52.196;4.420;2022-07-29T11:23:22;2.12;;;2.12;;
68864;SDS011;55898;52.196;4.420;2022-07-29T11:34:26;2.23;;;2.23;;
68864;SDS011;55898;52.196;4.420;2022-07-29T11:39:30;2.50;;;2.50;;
68864;SDS011;55898;52.196;4.420;2022-07-29T11:44:57;2.47;;;2.47;;
68864;SDS011;55898;52.196;4.420;2022-07-29T11:50:12;2.83;;;2.83;;
68864;SDS011;55898;52.196;4.420;2022-07-29T11:52:44;2.46;;;2.46;;
68864;SDS011;55898;52.196;4.420;2022-07-29T11:55:15;2.22;;;2.22;;
68864;SDS011;55898;52.196;4.420;2022-07-29T11:57:46;2.00;;;2.00;;
68864;SDS011;55898;52.196;4.420;2022-07-29T12:00:16;2.02;;;2.02;;
68864;SDS011;55898;52.196;4.420;2022-07-29T12:02:47;1.93;;;1.93;;
68864;SDS011;55898;52.196;4.420;2022-07-29T12:05:13;1.86;;;1.86;;
68864;SDS011;55898;52.196;4.420;2022-07-29T12:07:39;1.89;;;1.89;;
68864;SDS011;55898;52.196;4.420;2022-07-29T12:10:05;2.15;;;2.15;;
68864;SDS011;55898;52.196;4.420;2022-07-29T12:12:32;2.04;;;2.04;;
68864;SDS011;55898;52.196;4.420;2022-07-29T12:15:16;2.26;;;2.26;;
68864;SDS011;55898;52.196;4.420;2022-07-29T12:17:45;1.86;;;1.86;;
68864;SDS011;55898;52.196;4.420;2022-07-29T12:20:11;1.88;;;1.88;;
68864;SDS011;55898;52.196;4.420;2022-07-29T12:22:39;1.90;;;1.90;;
68864;SDS011;55898;52.196;4.420;2022-07-29T12:25:07;2.28;;;2.28;;
68864;SDS011;55898;52.196;4.420;2022-07-29T12:27:34;2.01;;;2.01;;
68864;SDS011;55898;52.196;4.420;2022-07-29T12:30:06;2.02;;;2.02;;
68864;SDS011;55898;52.196;4.420;2022-07-29T12:32:33;2.08;;;2.08;;
68864;SDS011;55898;52.196;4.420;2022-07-29T12:35:08;2.46;;;2.46;;
68864;SDS011;55898;52.196;4.420;2022-07-29T12:37:35;2.53;;;2.53;;
68864;SDS011;55898;52.196;4.420;2022-07-29T12:40:03;2.21;;;2.21;;
68864;SDS011;55898;52.196;4.420;2022-07-29T12:42:31;1.97;;;1.97;;
68864;SDS011;55898;52.196;4.420;2022-07-29T12:44:56;1.60;;;1.60;;
68864;SDS011;55898;52.196;4.420;2022-07-29T12:47:22;2.10;;;2.10;;
68864;SDS011;55898;52.196;4.420;2022-07-29T12:49:49;1.82;;;1.82;;
68864;SDS011;55898;52.196;4.420;2022-07-29T12:52:29;1.96;;;1.96;;
68864;SDS011;55898;52.196;4.420;2022-07-29T12:54:57;1.89;;;1.89;;
68864;SDS011;55898;52.196;4.420;2022-07-29T12:57:22;1.77;;;1.77;;
68864;SDS011;55898;52.196;4.420;2022-07-29T13:00:03;1.80;;;1.80;;
68864;SDS011;55898;52.196;4.420;2022-07-29T13:02:35;1.60;;;1.60;;
68864;SDS011;55898;52.196;4.420;2022-07-29T13:05:05;1.63;;;1.63;;
68864;SDS011;55898;52.196;4.420;2022-07-29T13:07:33;1.72;;;1.72;;
68864;SDS011;55898;52.196;4.420;2022-07-29T13:10:10;1.83;;;1.83;;
68864;SDS011;55898;52.196;4.420;2022-07-29T13:12:37;1.64;;;1.64;;
68864;SDS011;55898;52.196;4.420;2022-07-29T13:15:13;2.06;;;2.06;;
68864;SDS011;55898;52.196;4.420;2022-07-29T13:17:40;1.68;;;1.68;;
68864;SDS011;55898;52.196;4.420;2022-07-29T13:20:08;1.66;;;1.66;;
68864;SDS011;55898;52.196;4.420;2022-07-29T13:22:37;1.64;;;1.64;;
68864;SDS011;55898;52.196;4.420;2022-07-29T13:25:02;1.62;;;1.62;;
68864;SDS011;55898;52.196;4.420;2022-07-29T13:27:29;1.51;;;1.51;;
68864;SDS011;55898;52.196;4.420;2022-07-29T13:29:55;1.54;;;1.54;;
68864;SDS011;55898;52.196;4.420;2022-07-29T13:32:23;1.44;;;1.44;;
68864;SDS011;55898;52.196;4.420;2022-07-29T13:34:49;1.62;;;1.62;;
68864;SDS011;55898;52.196;4.420;2022-07-29T13:37:14;1.70;;;1.70;;
68864;SDS011;55898;52.196;4.420;2022-07-29T13:39:40;1.74;;;1.74;;
68864;SDS011;55898;52.196;4.420;2022-07-29T13:42:06;1.77;;;1.77;;
68864;SDS011;55898;52.196;4.420;2022-07-29T13:44:33;1.48;;;1.48;;
68864;SDS011;55898;52.196;4.420;2022-07-29T13:46:59;1.27;;;1.27;;
68864;SDS011;55898;52.196;4.420;2022-07-29T13:49:25;1.44;;;1.44;;
68864;SDS011;55898;52.196;4.420;2022-07-29T13:51:50;1.26;;;1.26;;
68864;SDS011;55898;52.196;4.420;2022-07-29T13:54:16;1.19;;;1.19;;
68864;SDS011;55898;52.196;4.420;2022-07-29T13:56:42;1.39;;;1.39;;
68864;SDS011;55898;52.196;4.420;2022-07-29T13:59:07;1.43;;;1.43;;
68864;SDS011;55898;52.196;4.420;2022-07-29T14:01:34;1.34;;;1.34;;
68864;SDS011;55898;52.196;4.420;2022-07-29T14:04:00;1.26;;;1.26;;
68864;SDS011;55898;52.196;4.420;2022-07-29T14:06:25;1.32;;;1.32;;
68864;SDS011;55898;52.196;4.420;2022-07-29T14:08:51;1.49;;;1.49;;
68864;SDS011;55898;52.196;4.420;2022-07-29T14:11:16;1.31;;;1.31;;
68864;SDS011;55898;52.196;4.420;2022-07-29T14:13:42;1.29;;;1.29;;
68864;SDS011;55898;52.196;4.420;2022-07-29T14:16:07;1.15;;;1.15;;
68864;SDS011;55898;52.196;4.420;2022-07-29T14:18:33;1.10;;;1.10;;
68864;SDS011;55898;52.196;4.420;2022-07-29T14:20:58;1.42;;;1.42;;
68864;SDS011;55898;52.196;4.420;2022-07-29T14:23:24;1.23;;;1.23;;
68864;SDS011;55898;52.196;4.420;2022-07-29T14:25:50;1.30;;;1.30;;
68864;SDS011;55898;52.196;4.420;2022-07-29T14:28:15;1.05;;;1.05;;
68864;SDS011;55898;52.196;4.420;2022-07-29T14:30:41;1.19;;;1.19;;
68864;SDS011;55898;52.196;4.420;2022-07-29T14:33:06;1.32;;;1.32;;
68864;SDS011;55898;52.196;4.420;2022-07-29T14:35:33;1.18;;;1.18;;
68864;SDS011;55898;52.196;4.420;2022-07-29T14:37:58;1.24;;;1.24;;
68864;SDS011;55898;52.196;4.420;2022-07-29T14:40:23;1.32;;;1.32;;
68864;SDS011;55898;52.196;4.420;2022-07-29T14:42:50;1.39;;;1.39;;
68864;SDS011;55898;52.196;4.420;2022-07-29T14:45:16;1.45;;;1.45;;
68864;SDS011;55898;52.196;4.420;2022-07-29T14:47:42;1.34;;;1.34;;
68864;SDS011;55898;52.196;4.420;2022-07-29T14:50:08;1.18;;;1.18;;
68864;SDS011;55898;52.196;4.420;2022-07-29T14:52:35;1.22;;;1.22;;
68864;SDS011;55898;52.196;4.420;2022-07-29T14:55:00;1.21;;;1.21;;
68864;SDS011;55898;52.196;4.420;2022-07-29T14:57:26;1.22;;;1.22;;
68864;SDS011;55898;52.196;4.420;2022-07-29T14:59:52;1.30;;;1.30;;
68864;SDS011;55898;52.196;4.420;2022-07-29T15:02:17;1.31;;;1.31;;
68864;SDS011;55898;52.196;4.420;2022-07-29T15:04:43;1.24;;;1.23;;
68864;SDS011;55898;52.196;4.420;2022-07-29T15:07:10;1.05;;;1.03;;
68864;SDS011;55898;52.196;4.420;2022-07-29T15:09:36;1.13;;;1.13;;
68864;SDS011;55898;52.196;4.420;2022-07-29T15:12:01;1.50;;;1.49;;
68864;SDS011;55898;52.196;4.420;2022-07-29T15:14:28;1.30;;;1.28;;
68864;SDS011;55898;52.196;4.420;2022-07-29T15:16:53;1.35;;;1.30;;
68864;SDS011;55898;52.196;4.420;2022-07-29T15:19:19;1.34;;;1.32;;
68864;SDS011;55898;52.196;4.420;2022-07-29T15:21:45;1.29;;;1.29;;
68864;SDS011;55898;52.196;4.420;2022-07-29T15:24:10;1.24;;;1.24;;
68864;SDS011;55898;52.196;4.420;2022-07-29T15:26:36;1.44;;;1.44;;
68864;SDS011;55898;52.196;4.420;2022-07-29T15:29:01;1.19;;;1.19;;
68864;SDS011;55898;52.196;4.420;2022-07-29T15:31:27;1.28;;;1.28;;
68864;SDS011;55898;52.196;4.420;2022-07-29T15:33:52;1.32;;;1.32;;
68864;SDS011;55898;52.196;4.420;2022-07-29T15:36:18;1.28;;;1.28;;
68864;SDS011;55898;52.196;4.420;2022-07-29T15:38:44;1.23;;;1.23;;
68864;SDS011;55898;52.196;4.420;2022-07-29T15:41:13;1.17;;;1.17;;
68864;SDS011;55898;52.196;4.420;2022-07-29T15:43:42;1.34;;;1.34;;